createdAt,value
2023-02-06T00:01:25.040Z,72.70
2023-02-06T00:06:28.835Z,72.70
2023-02-06T00:11:34.044Z,72.70
2023-02-06T00:16:38.349Z,72.70
2023-02-06T00:21:42.890Z,72.80
2023-02-06T00:26:48.039Z,72.80
2023-02-06T00:31:51.755Z,72.80
2023-02-06T00:36:55.365Z,72.70
2023-02-06T00:42:00.397Z,72.70
2023-02-06T00:47:04.151Z,72.80
2023-02-06T00:52:07.839Z,72.80
2023-02-06T00:57:12.912Z,72.70
2023-02-06T01:02:18.280Z,72.70
2023-02-06T01:07:22.012Z,72.80
2023-02-06T01:12:27.066Z,72.80
2023-02-06T01:17:32.544Z,72.80
2023-02-06T01:22:38.222Z,72.80
2023-02-06T01:27:43.284Z,72.80
2023-02-06T01:32:46.962Z,72.80
2023-02-06T01:37:52.572Z,72.80
2023-02-06T01:42:57.640Z,72.80
2023-02-06T01:48:06.278Z,72.80
2023-02-06T01:53:10.320Z,72.70
2023-02-06T01:58:22.640Z,72.70
2023-02-06T02:03:27.345Z,72.70
2023-02-06T02:08:39.451Z,72.80
2023-02-06T02:13:45.333Z,72.80
2023-02-06T02:19:10.255Z,72.70
2023-02-06T02:24:22.002Z,72.70
2023-02-06T02:35:55.160Z,72.80
2023-02-06T02:41:06.583Z,72.70
2023-02-06T02:46:21.458Z,72.70
2023-02-06T02:51:27.076Z,72.70
2023-02-06T02:56:33.617Z,72.70
2023-02-06T03:01:48.549Z,72.80
2023-02-06T03:07:12.641Z,72.70
2023-02-06T03:12:24.261Z,72.70
2023-02-06T03:17:37.724Z,72.70
2023-02-06T03:22:45.754Z,72.80
2023-02-06T03:27:51.576Z,72.80
2023-02-06T03:33:04.871Z,72.80
2023-02-06T03:38:10.860Z,72.80
2023-02-06T03:43:18.851Z,72.70
2023-02-06T03:48:28.321Z,72.70
2023-02-06T03:53:36.866Z,72.70
2023-02-06T03:58:40.714Z,72.70
2023-02-06T04:03:44.413Z,72.80
2023-02-06T04:08:49.584Z,72.80
2023-02-06T04:13:53.240Z,72.80
2023-02-06T04:18:56.865Z,72.80
2023-02-06T04:24:01.974Z,72.80
2023-02-06T04:29:05.573Z,72.80
2023-02-06T04:34:09.565Z,72.80
2023-02-06T04:39:14.682Z,72.80
2023-02-06T04:44:18.361Z,72.80
2023-02-06T04:49:22.221Z,72.80
2023-02-06T04:54:27.299Z,72.80
2023-02-06T04:59:31.160Z,72.80
2023-02-06T05:04:34.788Z,72.90
2023-02-06T05:09:39.719Z,72.80
2023-02-06T05:14:43.409Z,72.80
2023-02-06T05:19:47.028Z,72.80
2023-02-06T05:24:52.126Z,72.80
2023-02-06T05:29:55.801Z,72.80
2023-02-06T05:34:59.444Z,72.80
2023-02-06T05:40:04.656Z,72.80
2023-02-06T05:45:10.981Z,72.90
2023-02-06T05:50:14.641Z,72.80
2023-02-06T05:55:19.945Z,72.80
2023-02-06T06:00:23.850Z,72.80
2023-02-06T06:05:27.643Z,72.80
2023-02-06T06:10:32.755Z,72.80
2023-02-06T06:15:36.795Z,72.80
2023-02-06T06:20:40.592Z,72.80
2023-02-06T06:25:47.330Z,72.90
2023-02-06T06:30:51.047Z,72.90
2023-02-06T06:35:54.699Z,72.90
2023-02-06T06:40:59.659Z,72.90
2023-02-06T06:46:05.272Z,72.90
2023-02-06T06:51:09.016Z,72.80
2023-02-06T06:56:16.571Z,72.90
2023-02-06T07:01:21.301Z,72.80
2023-02-06T07:06:24.949Z,72.80
2023-02-06T07:11:30.094Z,72.80
2023-02-06T07:16:33.911Z,72.80
2023-02-06T07:21:37.905Z,72.90
2023-02-06T07:26:43.395Z,72.80
2023-02-06T07:31:47.436Z,72.80
2023-02-06T07:36:51.049Z,72.80
2023-02-06T07:41:56.155Z,72.80
2023-02-06T07:47:06.861Z,72.80
2023-02-06T07:52:10.624Z,72.80
2023-02-06T07:57:16.333Z,72.80
2023-02-06T08:02:20.119Z,73.50
2023-02-06T08:07:23.730Z,72.80
2023-02-06T08:12:31.263Z,72.80
2023-02-06T08:17:34.907Z,72.80
2023-02-06T08:22:39.017Z,72.80
2023-02-06T08:27:44.052Z,72.80
2023-02-06T08:32:47.800Z,72.80
2023-02-06T08:37:51.443Z,72.80
2023-02-06T08:42:56.404Z,72.80
2023-02-06T08:48:00.078Z,72.80
2023-02-06T08:53:03.980Z,72.80
2023-02-06T08:58:08.997Z,72.80
2023-02-06T09:03:12.648Z,72.80
2023-02-06T09:08:16.296Z,72.80
2023-02-06T09:13:21.249Z,72.80
2023-02-06T09:18:24.893Z,72.80
2023-02-06T09:23:28.911Z,72.70
2023-02-06T09:28:34.723Z,72.80
2023-02-06T09:33:41.561Z,72.80
2023-02-06T09:38:48.478Z,72.80
2023-02-06T09:44:04.311Z,72.70
2023-02-06T09:49:14.809Z,72.70
2023-02-06T09:54:29.362Z,72.80
2023-02-06T09:59:40.641Z,72.70
2023-02-06T10:04:55.601Z,72.70
2023-02-06T10:10:07.258Z,72.70
2023-02-06T10:15:20.961Z,72.70
2023-02-06T10:20:35.853Z,72.70
2023-02-06T10:25:45.253Z,72.60
2023-02-06T10:31:21.953Z,72.60
2023-02-06T10:36:46.904Z,72.60
2023-02-06T10:42:06.034Z,72.70
2023-02-06T10:47:29.710Z,72.60
2023-02-06T10:52:36.794Z,72.70
2023-02-06T10:57:43.022Z,72.50
2023-02-06T11:03:06.575Z,72.50
2023-02-06T11:08:24.113Z,72.50
2023-02-06T11:13:31.926Z,72.50
2023-02-06T11:18:41.567Z,72.50
2023-02-06T11:23:45.276Z,72.50
2023-02-06T11:28:54.307Z,72.60
2023-02-06T11:33:59.539Z,72.50
2023-02-06T11:39:07.901Z,72.50
2023-02-06T11:44:16.067Z,72.50
2023-02-06T11:49:30.119Z,72.60
2023-02-06T11:54:36.771Z,72.50
2023-02-06T11:59:53.565Z,72.50
2023-02-06T12:05:15.823Z,72.60
2023-02-06T12:10:23.538Z,72.50
2023-02-06T12:15:46.387Z,72.50
2023-02-06T12:20:58.988Z,73.00
2023-02-06T12:26:08.921Z,72.40
2023-02-06T12:31:22.470Z,72.50
2023-02-06T12:36:39.851Z,72.50
2023-02-06T12:42:13.164Z,72.40
2023-02-06T12:47:26.402Z,72.50
2023-02-06T12:52:39.083Z,72.40
2023-02-06T12:57:42.879Z,72.50
2023-02-06T13:03:26.249Z,72.50
2023-02-06T13:08:42.899Z,72.50
2023-02-06T13:13:46.587Z,72.40
2023-02-06T13:18:55.243Z,72.50
2023-02-06T13:24:19.925Z,72.50
2023-02-06T13:29:26.257Z,72.50
2023-02-06T13:34:30.131Z,72.40
2023-02-06T13:39:35.611Z,72.50
2023-02-06T13:44:40.713Z,72.50
2023-02-06T13:50:54.233Z,72.40
2023-02-06T13:56:20.288Z,72.40
2023-02-06T14:01:30.522Z,72.40
2023-02-06T14:07:05.672Z,72.40
2023-02-06T14:12:35.407Z,72.30
2023-02-06T14:18:16.738Z,72.30
2023-02-06T14:23:40.282Z,72.20
2023-02-06T14:28:58.954Z,72.20
2023-02-06T14:34:26.229Z,72.00
2023-02-06T14:39:48.764Z,72.00
2023-02-06T14:44:58.768Z,72.00
2023-02-06T14:50:03.316Z,72.10
2023-02-06T14:55:38.795Z,72.00
2023-02-06T15:00:44.195Z,71.90
2023-02-06T15:05:48.790Z,71.90
2023-02-06T15:11:00.369Z,71.90
2023-02-06T15:16:09.247Z,71.80
2023-02-06T15:21:17.622Z,71.80
2023-02-06T15:26:35.589Z,72.00
2023-02-06T15:31:40.961Z,71.80
2023-02-06T15:36:44.806Z,71.90
2023-02-06T15:41:52.636Z,71.90
2023-02-06T15:46:58.872Z,72.00
2023-02-06T15:52:03.315Z,72.00
2023-02-06T15:57:24.748Z,72.00
2023-02-06T16:02:35.792Z,72.10
2023-02-06T16:07:39.718Z,72.00
2023-02-06T16:12:44.895Z,72.00
2023-02-06T16:17:49.992Z,72.20
2023-02-06T16:22:57.177Z,72.30
2023-02-06T16:28:01.698Z,72.30
2023-02-06T16:33:26.845Z,72.40
2023-02-06T16:38:30.585Z,72.40
2023-02-06T16:43:34.190Z,72.40
2023-02-06T16:48:39.349Z,72.40
2023-02-06T16:53:43.017Z,72.40
2023-02-06T16:58:47.588Z,72.40
2023-02-06T17:03:53.732Z,72.50
2023-02-06T17:09:03.482Z,72.40
2023-02-06T17:14:07.513Z,72.50
2023-02-06T17:19:15.479Z,72.50
2023-02-06T17:24:19.210Z,72.50
2023-02-06T17:29:22.922Z,72.50
2023-02-06T17:34:30.189Z,72.40
2023-02-06T17:39:35.544Z,72.50
2023-02-06T17:44:39.894Z,72.50
2023-02-06T17:49:47.144Z,72.60
2023-02-06T17:54:51.203Z,72.60
2023-02-06T17:59:54.916Z,72.50
2023-02-06T18:05:00.952Z,72.60
2023-02-06T18:10:06.031Z,72.50
2023-02-06T18:15:13.680Z,72.60
2023-02-06T18:20:19.291Z,72.50
2023-02-06T18:25:23.830Z,72.60
2023-02-06T18:30:27.519Z,72.60
2023-02-06T18:35:33.756Z,72.60
2023-02-06T18:40:39.215Z,72.60
2023-02-06T18:45:44.297Z,72.60
2023-02-06T18:50:49.365Z,72.60
2023-02-06T18:55:59.059Z,72.60
2023-02-06T19:01:02.793Z,72.60
2023-02-06T19:06:16.010Z,72.50
2023-02-06T19:11:19.788Z,72.60
2023-02-06T19:16:23.606Z,72.60
2023-02-06T19:21:29.255Z,72.50
2023-02-06T19:26:33.665Z,72.50
2023-02-06T19:31:40.536Z,72.50
2023-02-06T19:36:45.952Z,72.50
2023-02-06T19:41:49.747Z,72.50
2023-02-06T19:46:53.672Z,72.50
2023-02-06T19:51:58.765Z,72.50
2023-02-06T19:57:02.477Z,72.50
2023-02-06T20:02:06.210Z,72.50
2023-02-06T20:07:11.207Z,72.60
2023-02-06T20:12:14.860Z,72.50
2023-02-06T20:17:18.565Z,72.60
2023-02-06T20:22:23.741Z,72.50
2023-02-06T20:27:27.716Z,72.50
2023-02-06T20:32:31.910Z,72.50
2023-02-06T20:37:36.956Z,72.50
2023-02-06T20:42:44.473Z,72.50
2023-02-06T20:47:48.198Z,72.50
2023-02-06T20:52:53.342Z,72.60
2023-02-06T20:57:57.027Z,72.50
2023-02-06T21:03:00.680Z,72.50
2023-02-06T21:08:06.038Z,72.60
2023-02-06T21:13:09.677Z,72.50
2023-02-06T21:18:13.319Z,72.50
2023-02-06T21:23:19.036Z,72.50
2023-02-06T21:28:23.644Z,72.50
2023-02-06T21:33:27.332Z,72.50
2023-02-06T21:38:32.320Z,72.50
2023-02-06T21:43:36.124Z,72.50
2023-02-06T21:48:41.334Z,72.50
2023-02-06T21:53:47.194Z,72.50
2023-02-06T21:58:52.240Z,72.50
2023-02-06T22:03:56.930Z,72.50
2023-02-06T22:09:07.442Z,72.50
2023-02-06T22:14:15.472Z,72.60
2023-02-06T22:19:19.102Z,72.50
2023-02-06T22:24:24.101Z,72.50
2023-02-06T22:29:30.076Z,72.60
2023-02-06T22:34:34.236Z,72.50
2023-02-06T22:39:39.251Z,72.60
2023-02-06T22:44:43.026Z,72.50
2023-02-06T22:49:47.058Z,72.60
2023-02-06T22:54:52.154Z,72.50
2023-02-06T22:59:55.804Z,72.50
2023-02-06T23:04:59.574Z,72.50
2023-02-06T23:10:06.268Z,72.40
2023-02-06T23:15:11.461Z,72.50
2023-02-06T23:20:15.165Z,72.40
2023-02-06T23:25:20.376Z,72.40
2023-02-06T23:30:24.553Z,72.40
2023-02-06T23:35:28.264Z,72.40
2023-02-06T23:40:34.555Z,72.40
2023-02-06T23:45:38.743Z,72.30
2023-02-06T23:50:42.641Z,72.50
2023-02-06T23:55:47.778Z,72.40
